• Join FlightAware (Why Join?)
  • Login
  • US Flag 
03:45PM EDT


 

Airport Tracker/Info


-or-


 

Live Flight TrackerFlight Track Log ✈ SKW6345 ✈ 28-Apr-2013 ✈ KLAX - KPSP

Flight Track Log - Related Links

Times and Time Zones

All times are in EDT time to prevent confusion due to time zone crossing. See the SKW6345 flight status page for this flight to view local times or setup timezone preferences in your user account.

Time Position Orientation Groundspeed Altitude Reporting Facility
EDT Latitude Longitude Course Direction KTS MPH feet Rate Location/Type
08:56PM 33.9310 -118.1893 94° East  Level Estimated
08:57PM 33.9271 -118.1164 94° East  Level Estimated
08:58PM 33.9231 -118.0435 94° East  Level Estimated
08:59PM 33.9192 -117.9707 94° East  Level Estimated
09:00PM 33.9151 -117.8978 94° East  Level Estimated
09:01PM 33.9110 -117.8249 94° East  Level Estimated
09:02PM 33.9069 -117.7521 94° East  Level Estimated
09:03PM 33.9027 -117.6792 94° East  Level Estimated
09:04PM 33.8985 -117.6064 94° East  Level Estimated
09:05PM 33.8943 -117.5335 94° East  Level Estimated
09:06PM 33.8900 -117.4607 94° East  Level Estimated
09:07PM 33.8856 -117.3878 94° East  Level Estimated
09:08PM 33.8812 -117.3150 94° East  Level Estimated
09:09PM 33.8768 -117.2422 94° East  Level Estimated
09:10PM 33.8723 -117.1694 94° East  Level Estimated
09:11PM 33.8678 -117.0966 94° East  Level Estimated
09:12PM 33.8633 -117.0238 94° East  Level Estimated
09:13PM 33.8587 -116.9510 94° East  Level Estimated
09:14PM 33.8540 -116.8783 94° East  Level Estimated
09:15PM 33.8493 -116.8055 94° East  Level Estimated
09:16PM 33.8446 -116.7328 94° East  Level Estimated
09:17PM 33.8399 -116.6600 94° East  Level Estimated
09:18PM 33.8350 -116.5873 95° East  Level Estimated
09:19PM 33.8302 -116.5145 95° East  Level Estimated
09:20PM 33.8297 -116.5067 95° East  Level Estimated
09:21PM 33.8297 -116.5067 228° Southwest  Level Estimated
09:22PM 33.8297 -116.5067 228° Southwest  Level Estimated
09:23PM 33.8297 -116.5067 228° Southwest  Level Estimated
09:24PM 33.8297 -116.5067 228° Southwest  Level Estimated
09:25PM 33.8297 -116.5067 228° Southwest  Level Estimated
09:26PM 33.8297 -116.5067 228° Southwest  Level Estimated
09:27PM 33.8297 -116.5067 228° Southwest  Level Estimated
09:28PM 33.8297 -116.5067 228° Southwest  Level Estimated